Time;durP1;ratioP1;P1;durP2;ratioP2;P2;SDS_P1;SDS_P2;PMS_P1;PMS_P2;Temp;Humidity;BMP_temperature;BMP_pressure;BME280_temperature;BME280_humidity;BME280_pressure;Samples;Min_cycle;Max_cycle;Signal;HPM_P1;HPM_P2
2022/04/08 00:00:42;;;;;;;3.15;0.93;;;;;;;4.86;79.20;96343.22;4198071;28;20075;-72
2022/04/08 00:02:43;;;;;;;2.60;0.80;;;;;;;4.88;79.14;96349.88;4197176;28;20284;-72
2022/04/08 00:04:44;;;;;;;2.95;1.30;;;;;;;4.85;78.82;96369.84;4193016;28;20400;-71
2022/04/08 00:06:44;;;;;;;1.55;0.95;;;;;;;4.86;79.75;96376.09;4196427;28;20048;-71
2022/04/08 00:08:46;;;;;;;3.10;1.02;;;;;;;4.84;79.64;96372.97;4196713;28;20044;-71
2022/04/08 00:10:47;;;;;;;2.30;1.00;;;;;;;4.85;80.84;96388.22;4202011;28;20278;-71
2022/04/08 00:12:47;;;;;;;1.45;1.00;;;;;;;4.77;81.07;96380.00;4196155;28;20446;-71
2022/04/08 00:14:47;;;;;;;3.65;0.93;;;;;;;4.77;81.08;96409.34;4196707;28;20396;-71
2022/04/08 00:16:48;;;;;;;1.20;1.00;;;;;;;4.76;81.31;96397.63;4194574;28;20043;-71
2022/04/08 00:18:49;;;;;;;2.08;1.08;;;;;;;4.65;83.06;96391.34;4195560;28;20076;-71
2022/04/08 00:20:49;;;;;;;2.17;1.08;;;;;;;4.62;82.71;96389.38;4196975;28;20144;-71
2022/04/08 00:22:50;;;;;;;1.63;1.00;;;;;;;4.54;83.16;96400.72;4196574;28;20044;-71
2022/04/08 00:24:50;;;;;;;0.90;0.80;;;;;;;4.46;84.31;96400.69;4197680;28;20037;-71
2022/04/08 00:26:51;;;;;;;1.70;0.80;;;;;;;4.43;83.29;96392.47;4194465;28;20052;-71
2022/04/08 00:28:51;;;;;;;2.83;1.38;;;;;;;4.38;83.39;96381.91;4203597;28;20074;-71
2022/04/08 00:30:51;;;;;;;4.00;1.10;;;;;;;4.38;82.71;96382.69;4198315;28;20135;-71
2022/04/08 00:32:51;;;;;;;2.50;1.20;;;;;;;4.34;82.94;96386.59;4192659;28;20056;-71
2022/04/08 00:34:52;;;;;;;2.35;1.50;;;;;;;4.36;82.21;96384.25;4197344;28;20430;-71
2022/04/08 00:36:56;;;;;;;2.60;1.40;;;;;;;4.46;81.67;96394.44;4195844;28;20401;-71
2022/04/08 00:38:57;;;;;;;3.83;1.70;;;;;;;4.48;81.10;96406.59;4196463;28;20336;-71
2022/04/08 00:40:57;;;;;;;3.55;1.50;;;;;;;4.55;80.31;96391.31;4196047;28;20080;-71
2022/04/08 00:42:57;;;;;;;3.88;1.85;;;;;;;4.57;80.49;96398.00;4199269;28;20040;-71
2022/04/08 00:44:58;;;;;;;3.58;1.80;;;;;;;4.57;80.89;96392.53;4196180;28;20056;-71
2022/04/08 00:46:58;;;;;;;3.47;1.52;;;;;;;4.58;80.50;96416.00;4194300;28;20090;-71
2022/04/08 00:48:58;;;;;;;2.47;1.90;;;;;;;4.65;79.61;96421.50;4195978;28;20043;-71
2022/04/08 00:51:00;;;;;;;3.63;1.70;;;;;;;4.63;80.44;96401.91;4196085;28;20109;-71
2022/04/08 00:53:01;;;;;;;3.50;1.85;;;;;;;4.62;80.55;96426.94;4195491;28;20056;-71
2022/04/08 00:55:03;;;;;;;3.40;1.80;;;;;;;4.62;80.12;96424.97;4194865;28;20067;-71
2022/04/08 00:57:04;;;;;;;4.90;2.05;;;;;;;4.64;79.73;96430.88;4196326;28;20049;-71
2022/04/08 00:59:04;;;;;;;3.90;2.05;;;;;;;4.71;78.75;96425.38;4197772;28;20421;-71
2022/04/08 01:01:05;;;;;;;3.50;1.73;;;;;;;4.78;76.89;96441.06;4191991;28;20036;-71
2022/04/08 01:03:06;;;;;;;2.70;2.20;;;;;;;4.75;78.08;96445.38;4202077;28;20468;-71
2022/04/08 01:05:06;;;;;;;5.20;1.88;;;;;;;4.76;77.25;96422.28;4197495;28;20070;-71
2022/04/08 01:07:07;;;;;;;4.07;2.90;;;;;;;4.74;76.37;96441.06;4195375;28;20052;-71
2022/04/08 01:09:07;;;;;;;4.22;2.10;;;;;;;4.71;77.20;96446.53;4195865;28;20079;-71
2022/04/08 01:11:08;;;;;;;3.13;1.83;;;;;;;4.73;76.69;96469.63;4195675;28;20051;-71
2022/04/08 01:13:08;;;;;;;4.50;2.22;;;;;;;4.69;76.60;96470.78;4195716;28;20805;-71
2022/04/08 01:15:09;;;;;;;4.25;1.88;;;;;;;4.67;77.06;96465.69;4196046;28;20227;-71
2022/04/08 01:17:10;;;;;;;2.40;1.70;;;;;;;4.65;77.56;96486.44;4197914;28;20047;-71
2022/04/08 01:19:10;;;;;;;3.83;2.00;;;;;;;4.58;78.01;96467.25;4197892;28;20503;-71
2022/04/08 01:21:10;;;;;;;2.67;1.73;;;;;;;4.59;77.79;96471.56;4196431;28;20056;-71
2022/04/08 01:23:15;;;;;;;4.50;1.90;;;;;;;4.56;77.44;96472.34;4195284;28;20413;-71
2022/04/08 01:25:15;;;;;;;2.22;1.70;;;;;;;4.58;77.57;96484.47;4202525;28;20044;-71
2022/04/08 01:27:19;;;;;;;3.47;2.10;;;;;;;4.62;77.28;96487.97;4195802;28;20052;-71
2022/04/08 01:29:20;;;;;;;2.90;1.90;;;;;;;4.69;77.02;96492.69;4195632;28;20044;-71
2022/04/08 01:31:21;;;;;;;3.78;2.20;;;;;;;4.65;77.10;96484.50;4197719;28;20044;-71
2022/04/08 01:33:21;;;;;;;5.85;2.38;;;;;;;4.62;77.95;96509.91;4194812;28;20309;-71
2022/04/08 01:35:22;;;;;;;5.20;2.30;;;;;;;4.56;78.42;96483.28;4197100;28;20048;-71
2022/04/08 01:37:22;;;;;;;2.38;1.90;;;;;;;4.62;77.73;96489.94;4198066;28;20376;-71
2022/04/08 01:39:22;;;;;;;4.88;2.10;;;;;;;4.69;77.84;96509.13;4196724;28;20542;-71
2022/04/08 01:41:23;;;;;;;4.35;2.05;;;;;;;4.67;78.47;96506.78;4197475;28;20531;-71
2022/04/08 01:43:23;;;;;;;3.08;2.75;;;;;;;4.71;78.04;96515.00;4192531;28;20041;-71
2022/04/08 01:45:24;;;;;;;5.63;2.47;;;;;;;4.77;77.56;96517.00;4197174;28;20036;-71
2022/04/08 01:47:24;;;;;;;3.67;2.33;;;;;;;4.74;77.28;96517.78;4196149;28;20040;-71
2022/04/08 01:49:24;;;;;;;2.65;2.13;;;;;;;4.87;76.11;96511.91;4191975;28;20059;-71
2022/04/08 01:51:25;;;;;;;3.42;2.30;;;;;;;4.87;76.18;96509.97;4197087;28;20043;-71
2022/04/08 01:53:25;;;;;;;4.50;2.30;;;;;;;4.86;76.06;96507.63;4196379;28;20447;-71
2022/04/08 01:55:26;;;;;;;2.75;2.20;;;;;;;4.89;74.65;96487.69;4189411;28;20483;-71
2022/04/08 01:57:29;;;;;;;4.70;2.47;;;;;;;4.82;76.22;96491.19;4194492;28;20060;-71
2022/04/08 01:59:29;;;;;;;3.33;2.50;;;;;;;4.81;75.39;96510.75;4196969;28;20168;-71
2022/04/08 02:01:29;;;;;;;5.53;2.65;;;;;;;4.81;75.85;96497.06;4198313;28;20472;-71
2022/04/08 02:03:30;;;;;;;2.67;2.05;;;;;;;4.86;75.42;96497.44;4192215;28;20045;-71
2022/04/08 02:05:31;;;;;;;6.00;2.58;;;;;;;4.76;76.15;96509.94;4198635;28;20044;-71
2022/04/08 02:07:31;;;;;;;5.50;2.45;;;;;;;4.78;76.06;96493.91;4194977;28;20043;-71
2022/04/08 02:09:33;;;;;;;7.47;2.40;;;;;;;4.70;76.40;96503.28;4192936;28;20703;-71
2022/04/08 02:11:35;;;;;;;5.45;2.50;;;;;;;4.64;76.16;96512.28;4196191;28;20039;-71
2022/04/08 02:13:35;;;;;;;4.28;2.40;;;;;;;4.59;75.77;96521.63;4196691;28;20434;-71
2022/04/08 02:15:37;;;;;;;3.10;2.42;;;;;;;4.62;76.29;96525.53;4197800;28;20044;-71
2022/04/08 02:17:38;;;;;;;5.57;2.70;;;;;;;4.59;76.53;96527.13;4191352;28;20040;-71
2022/04/08 02:19:38;;;;;;;2.47;2.10;;;;;;;4.56;77.11;96533.38;4197109;28;20044;-71
2022/04/08 02:21:39;;;;;;;3.60;2.85;;;;;;;4.61;77.13;96543.94;4194747;28;20139;-71
2022/04/08 02:23:39;;;;;;;3.83;2.70;;;;;;;4.70;76.75;96549.06;4193417;28;20549;-71
2022/04/08 02:25:40;;;;;;;5.53;2.88;;;;;;;4.68;77.04;96537.72;4195399;28;20098;-71
2022/04/08 02:27:40;;;;;;;3.00;2.40;;;;;;;4.69;77.25;96561.19;4193909;28;20548;-71
2022/04/08 02:29:40;;;;;;;5.28;2.92;;;;;;;4.67;77.50;96563.53;4188413;28;20039;-71
2022/04/08 02:31:41;;;;;;;5.72;3.28;;;;;;;4.69;77.81;96537.31;4197026;28;20059;-71
2022/04/08 02:33:41;;;;;;;4.78;2.33;;;;;;;4.73;77.60;96549.09;4196616;28;20063;-71
2022/04/08 02:35:42;;;;;;;2.90;2.47;;;;;;;4.75;77.45;96557.69;4195818;28;20483;-71
2022/04/08 02:37:42;;;;;;;4.93;2.70;;;;;;;4.68;78.04;96559.63;4192542;28;20123;-71
2022/04/08 02:39:42;;;;;;;4.45;2.72;;;;;;;4.68;78.08;96567.84;4195739;28;20036;-71
2022/04/08 02:41:43;;;;;;;5.28;3.53;;;;;;;4.65;77.77;96582.31;4194335;28;20445;-71
2022/04/08 02:43:43;;;;;;;5.78;2.50;;;;;;;4.67;77.40;96593.66;4194706;28;20052;-71
2022/04/08 02:45:43;;;;;;;5.45;2.45;;;;;;;4.72;77.23;96568.66;4195301;28;20047;-71
2022/04/08 02:47:44;;;;;;;2.53;2.20;;;;;;;4.78;76.90;96583.53;4193450;28;20037;-71
2022/04/08 02:49:45;;;;;;;4.63;2.42;;;;;;;4.73;76.83;96568.25;4195654;28;20044;-71
2022/04/08 02:51:45;;;;;;;4.88;2.42;;;;;;;4.73;76.80;96564.75;4192302;28;20122;-71
2022/04/08 02:53:45;;;;;;;3.65;2.38;;;;;;;4.72;76.88;96583.13;4195591;28;20052;-71
2022/04/08 02:55:46;;;;;;;3.70;2.15;;;;;;;4.74;76.36;96582.75;4194729;28;20498;-71
2022/04/08 02:57:47;;;;;;;3.08;2.00;;;;;;;4.81;76.06;96592.94;4193211;28;20404;-71
2022/04/08 02:59:50;;;;;;;3.03;2.20;;;;;;;4.80;76.31;96592.16;4194102;28;20096;-71
2022/04/08 03:01:50;;;;;;;2.67;2.22;;;;;;;4.79;76.13;96593.31;4193817;28;20055;-71
2022/04/08 03:03:51;;;;;;;2.75;2.25;;;;;;;4.86;76.43;96598.03;4188695;28;20040;-71
2022/04/08 03:05:51;;;;;;;3.88;2.20;;;;;;;4.88;75.89;96607.47;4197635;28;20099;-71
2022/04/08 03:07:52;;;;;;;5.30;2.13;;;;;;;4.93;75.42;96606.28;4195106;28;20063;-71
2022/04/08 03:09:52;;;;;;;4.40;2.88;;;;;;;4.91;75.67;96619.59;4195467;28;20033;-71
2022/04/08 03:11:52;;;;;;;2.72;2.10;;;;;;;4.89;75.98;96627.44;4197574;28;20063;-71
2022/04/08 03:13:53;;;;;;;4.07;2.30;;;;;;;4.89;75.92;96619.22;4188207;28;20132;-71
2022/04/08 03:15:53;;;;;;;4.60;2.20;;;;;;;4.87;75.62;96629.75;4193005;28;20048;-71
2022/04/08 03:17:53;;;;;;;3.53;2.10;;;;;;;4.90;76.23;96631.72;4194669;28;20159;-71
2022/04/08 03:19:55;;;;;;;5.80;2.40;;;;;;;4.81;76.58;96637.56;4192337;28;20040;-71
2022/04/08 03:21:56;;;;;;;2.17;1.98;;;;;;;4.77;76.37;96634.78;4194033;28;20489;-71
2022/04/08 03:23:57;;;;;;;3.72;2.20;;;;;;;4.85;76.53;96626.63;4194582;28;20040;-71
2022/04/08 03:25:58;;;;;;;4.50;2.22;;;;;;;4.84;76.00;96645.00;4193814;28;20055;-71
2022/04/08 03:27:58;;;;;;;3.63;2.08;;;;;;;4.88;75.46;96642.28;4194436;28;20040;-71
2022/04/08 03:29:58;;;;;;;3.50;2.35;;;;;;;4.86;75.64;96637.19;4193692;28;20381;-71
2022/04/08 03:31:59;;;;;;;5.65;2.47;;;;;;;4.84;74.87;96646.97;4196512;28;20040;-71
2022/04/08 03:33:59;;;;;;;2.67;2.15;;;;;;;4.85;74.41;96648.53;4189442;28;20360;-71
2022/04/08 03:35:59;;;;;;;3.60;1.80;;;;;;;4.88;73.56;96643.09;4194188;28;20357;-71
2022/04/08 03:38:00;;;;;;;3.33;2.08;;;;;;;4.89;73.66;96654.84;4188751;28;20048;-71
2022/04/08 03:40:00;;;;;;;2.90;2.20;;;;;;;4.84;73.73;96653.22;4191998;28;20133;-71
2022/04/08 03:42:01;;;;;;;4.32;2.03;;;;;;;4.84;73.17;96664.19;4193620;28;20488;-71
2022/04/08 03:44:01;;;;;;;6.00;2.13;;;;;;;4.87;73.70;96670.84;4193506;28;20037;-71
2022/04/08 03:46:02;;;;;;;2.80;1.90;;;;;;;4.90;73.08;96683.81;4192392;28;20032;-71
2022/04/08 03:48:02;;;;;;;3.35;2.20;;;;;;;4.88;74.01;96672.41;4199077;28;20118;-71
2022/04/08 03:50:03;;;;;;;4.65;1.90;;;;;;;4.89;74.15;96672.06;4193623;28;20029;-71
2022/04/08 03:52:05;;;;;;;3.10;2.20;;;;;;;4.88;73.39;96672.41;4192473;28;20271;-71
2022/04/08 03:54:05;;;;;;;3.28;2.10;;;;;;;4.83;74.42;96687.28;4191540;28;20031;-71
2022/04/08 03:56:05;;;;;;;2.60;2.25;;;;;;;4.83;74.75;96681.03;4193922;28;20123;-71
2022/04/08 03:58:08;;;;;;;3.92;1.92;;;;;;;4.86;74.01;96677.50;4194671;28;20138;-71
2022/04/08 04:00:09;;;;;;;3.38;2.15;;;;;;;4.84;75.14;96688.06;4191442;28;20060;-71
2022/04/08 04:02:09;;;;;;;5.78;2.20;;;;;;;4.82;76.20;96695.91;4187721;28;20047;-71
2022/04/08 04:04:09;;;;;;;2.53;1.80;;;;;;;4.85;75.39;96695.13;4193700;28;20461;-71
2022/04/08 04:06:10;;;;;;;4.20;2.35;;;;;;;4.79;75.65;96694.69;4195500;28;20172;-71
2022/04/08 04:08:15;;;;;;;5.00;2.20;;;;;;;4.77;76.05;96700.56;4192243;28;20348;-71
2022/04/08 04:10:15;;;;;;;3.72;2.00;;;;;;;4.79;74.93;96702.91;4188922;28;20029;-71
2022/04/08 04:12:16;;;;;;;5.63;2.40;;;;;;;4.76;75.62;96695.47;4197349;28;20035;-71
2022/04/08 04:14:16;;;;;;;2.58;2.00;;;;;;;4.74;75.26;96684.09;4193889;28;20693;-71
2022/04/08 04:16:16;;;;;;;3.60;2.22;;;;;;;4.73;75.17;96701.72;4194197;28;20020;-71
2022/04/08 04:18:16;;;;;;;2.40;2.00;;;;;;;4.71;75.07;96712.25;4191402;28;20471;-71
2022/04/08 04:20:17;;;;;;;3.63;2.28;;;;;;;4.73;75.14;96715.41;4190968;28;20037;-71
2022/04/08 04:22:17;;;;;;;3.17;2.30;;;;;;;4.67;75.93;96709.50;4188866;28;20829;-71
2022/04/08 04:24:17;;;;;;;4.60;2.60;;;;;;;4.68;75.03;96719.28;4193395;28;20036;-71
2022/04/08 04:26:18;;;;;;;4.68;2.40;;;;;;;4.64;75.23;96726.72;4190978;28;20032;-71
2022/04/08 04:28:18;;;;;;;4.72;2.33;;;;;;;4.70;74.83;96719.69;4194708;28;20836;-71
2022/04/08 04:30:19;;;;;;;4.30;1.95;;;;;;;4.75;73.96;96733.03;4196222;28;20028;-71
2022/04/08 04:32:20;;;;;;;3.83;2.15;;;;;;;4.79;73.32;96738.53;4194727;28;20157;-71
2022/04/08 04:34:20;;;;;;;4.72;2.30;;;;;;;4.83;73.56;96733.88;4194074;28;20067;-71
2022/04/08 04:36:20;;;;;;;4.25;2.30;;;;;;;4.87;73.29;96742.09;4197798;28;20044;-71
2022/04/08 04:38:21;;;;;;;3.78;2.03;;;;;;;4.78;73.64;96739.69;4197292;28;20492;-71
2022/04/08 04:40:22;;;;;;;2.33;2.10;;;;;;;4.80;73.56;96742.88;4192647;28;20040;-71
2022/04/08 04:42:22;;;;;;;3.95;1.90;;;;;;;4.86;72.47;96740.53;4190750;28;20141;-71
2022/04/08 04:44:22;;;;;;;2.83;2.20;;;;;;;4.89;71.38;96745.25;4197976;28;20084;-71
2022/04/08 04:46:23;;;;;;;5.95;2.45;;;;;;;4.85;72.42;96749.91;4197954;28;20051;-71
2022/04/08 04:48:23;;;;;;;2.35;1.83;;;;;;;4.84;71.43;96759.31;4193516;28;20044;-71
2022/04/08 04:50:23;;;;;;;3.03;2.38;;;;;;;4.84;70.56;96762.84;4195716;28;20316;-71
2022/04/08 04:52:24;;;;;;;4.15;2.22;;;;;;;4.83;70.73;96764.00;4195666;28;20060;-71
2022/04/08 04:54:24;;;;;;;3.85;2.40;;;;;;;4.82;70.36;96767.91;4137550;28;20505;-71
2022/04/08 04:56:26;;;;;;;6.43;2.47;;;;;;;4.77;71.22;96776.47;4193801;28;20177;-71
2022/04/08 04:58:26;;;;;;;3.07;2.10;;;;;;;4.69;71.60;96778.38;4194068;28;20044;-71
2022/04/08 05:00:27;;;;;;;3.33;2.40;;;;;;;4.70;70.75;96788.19;4191115;28;20028;-71
2022/04/08 05:02:27;;;;;;;2.90;2.25;;;;;;;4.67;71.15;96790.91;4191831;28;20380;-71
2022/04/08 05:04:27;;;;;;;2.47;2.03;;;;;;;4.69;70.75;96788.56;4190553;28;20542;-71
2022/04/08 05:06:28;;;;;;;2.80;2.35;;;;;;;4.57;71.06;96800.63;4198682;28;20036;-71
2022/04/08 05:08:28;;;;;;;4.05;2.25;;;;;;;4.59;71.37;96792.78;4193069;28;20045;-71
2022/04/08 05:10:29;;;;;;;2.95;2.40;;;;;;;4.59;70.71;96800.22;4193599;28;20044;-71
2022/04/08 05:12:30;;;;;;;4.32;2.10;;;;;;;4.59;71.42;96820.19;4194151;28;20056;-71
2022/04/08 05:14:30;;;;;;;8.93;3.17;;;;;;;4.50;72.35;96804.06;4199495;28;20153;-71
2022/04/08 05:16:31;;;;;;;2.97;2.13;;;;;;;4.49;72.72;96818.16;4193238;28;20165;-71
2022/04/08 05:18:31;;;;;;;3.55;2.30;;;;;;;4.47;73.02;96804.84;4197161;28;20358;-71
2022/04/08 05:20:32;;;;;;;5.20;2.33;;;;;;;4.50;73.88;96828.72;4198670;28;20043;-71
2022/04/08 05:22:33;;;;;;;5.20;2.45;;;;;;;4.47;73.50;96824.00;4195336;28;20380;-71
2022/04/08 05:24:33;;;;;;;5.38;2.80;;;;;;;4.45;74.02;96807.16;4195181;28;20047;-71
2022/04/08 05:26:34;;;;;;;3.42;2.50;;;;;;;4.49;74.45;96807.97;4196057;28;20040;-71
2022/04/08 05:28:34;;;;;;;6.15;2.50;;;;;;;4.53;74.56;96826.38;4193850;28;20382;-71
2022/04/08 05:30:36;;;;;;;4.05;2.58;;;;;;;4.50;74.04;96823.25;4197032;28;20036;-71
2022/04/08 05:32:36;;;;;;;2.70;2.30;;;;;;;4.45;74.35;96823.59;4195412;28;20045;-71
2022/04/08 05:34:37;;;;;;;2.95;2.38;;;;;;;4.37;75.16;96824.69;4189839;28;20048;-71
2022/04/08 05:36:37;;;;;;;4.72;2.40;;;;;;;4.45;74.73;96820.06;4194435;28;20086;-71
2022/04/08 05:38:37;;;;;;;4.97;2.30;;;;;;;4.44;74.79;96818.50;4192960;28;20052;-71
2022/04/08 05:40:38;;;;;;;4.03;2.72;;;;;;;4.43;74.99;96823.19;4196017;28;20044;-71
2022/04/08 05:42:39;;;;;;;5.18;2.47;;;;;;;4.42;75.61;96829.03;4198833;28;20040;-71
2022/04/08 05:44:39;;;;;;;5.07;2.83;;;;;;;4.50;74.79;96833.41;4190764;28;20044;-71
2022/04/08 05:46:40;;;;;;;5.80;2.75;;;;;;;4.56;75.22;96831.13;4195635;28;20210;-71
2022/04/08 05:48:41;;;;;;;5.10;2.88;;;;;;;4.58;74.63;96839.75;4196930;28;20211;-71
2022/04/08 05:50:41;;;;;;;5.80;3.00;;;;;;;4.50;74.81;96828.72;4196301;28;20117;-71
2022/04/08 05:52:43;;;;;;;7.60;3.03;;;;;;;4.63;73.62;96831.16;4194064;28;20146;-71
2022/04/08 05:54:43;;;;;;;4.78;2.72;;;;;;;4.63;73.62;96836.63;4196094;28;20048;-71
2022/04/08 05:56:44;;;;;;;3.20;2.45;;;;;;;4.65;73.72;96826.91;4193937;28;20357;-71
2022/04/08 05:58:44;;;;;;;2.85;2.50;;;;;;;4.67;73.20;96835.50;4195034;28;20123;-71
2022/04/08 06:00:46;;;;;;;5.75;2.67;;;;;;;4.73;73.01;96860.63;4196130;28;20537;-71
2022/04/08 06:02:47;;;;;;;3.30;2.67;;;;;;;4.76;73.24;96846.94;4192642;28;20798;-71
2022/04/08 06:04:48;;;;;;;3.72;2.33;;;;;;;4.87;72.57;96849.75;4195820;28;20283;-71
2022/04/08 06:06:48;;;;;;;3.17;2.33;;;;;;;4.88;71.69;96853.28;4193921;28;20310;-71
2022/04/08 06:08:49;;;;;;;4.25;2.63;;;;;;;4.89;71.35;96855.66;4193719;28;20052;-71
2022/04/08 06:10:49;;;;;;;4.82;2.88;;;;;;;4.81;72.15;96862.25;4198331;28;20048;-71
2022/04/08 06:12:51;;;;;;;5.47;2.67;;;;;;;4.85;70.71;96860.31;4194670;28;20118;-71
2022/04/08 06:14:51;;;;;;;2.70;2.38;;;;;;;4.85;70.45;96865.00;4195579;28;20467;-71
2022/04/08 06:16:52;;;;;;;6.13;2.67;;;;;;;4.93;69.96;96877.59;4193046;28;20148;-71
2022/04/08 06:18:52;;;;;;;4.00;2.50;;;;;;;5.00;70.04;96875.72;4201363;28;20040;-71
2022/04/08 06:20:53;;;;;;;3.08;2.10;;;;;;;5.05;69.57;96867.13;4194564;28;20045;-71
2022/04/08 06:22:54;;;;;;;2.85;2.42;;;;;;;5.01;67.87;96881.97;4195029;28;20114;-71
2022/04/08 06:24:54;;;;;;;5.45;2.67;;;;;;;4.94;68.62;96890.13;4195929;28;20468;-71
2022/04/08 06:26:54;;;;;;;4.65;2.75;;;;;;;5.06;67.47;96898.88;4195476;28;20040;-71
2022/04/08 06:28:55;;;;;;;4.00;2.50;;;;;;;5.08;68.79;96895.75;4191977;28;20052;-71
2022/04/08 06:30:55;;;;;;;7.45;2.80;;;;;;;5.12;68.82;96901.22;4193996;28;20044;-72
2022/04/08 06:32:56;;;;;;;5.10;3.13;;;;;;;5.27;69.28;96895.47;4195338;28;20151;-72
2022/04/08 06:34:56;;;;;;;4.63;2.90;;;;;;;5.34;68.69;96895.53;4194337;28;20053;-72
2022/04/08 06:36:56;;;;;;;3.60;2.58;;;;;;;5.41;68.53;96904.97;4193851;28;20154;-72
2022/04/08 06:38:57;;;;;;;6.05;3.25;;;;;;;5.48;68.84;96894.06;4195551;28;20636;-72
2022/04/08 06:40:57;;;;;;;3.80;2.78;;;;;;;5.49;67.98;96899.16;4194557;28;20049;-72
2022/04/08 06:42:59;;;;;;;4.68;2.33;;;;;;;5.48;68.79;96913.25;4200139;28;20131;-72
2022/04/08 06:45:00;;;;;;;3.83;2.43;;;;;;;5.54;67.79;96900.72;4192765;28;20044;-72
2022/04/08 06:47:00;;;;;;;5.05;4.10;;;;;;;5.62;68.81;96902.34;4193233;28;20282;-73
2022/04/08 06:49:02;;;;;;;7.25;4.07;;;;;;;5.70;67.93;96903.16;4192136;28;20040;-72
2022/04/08 06:51:06;;;;;;;8.27;4.47;;;;;;;5.62;68.04;96914.09;4191982;28;20040;-72
2022/04/08 06:53:06;;;;;;;4.57;2.45;;;;;;;5.55;68.61;96905.84;4200766;28;20061;-72
2022/04/08 06:55:08;;;;;;;5.00;2.17;;;;;;;5.60;67.78;96902.72;4193117;28;20056;-71
2022/04/08 06:57:09;;;;;;;5.53;2.87;;;;;;;5.66;67.88;96918.84;4191007;28;20391;-71
2022/04/08 06:59:09;;;;;;;5.25;2.38;;;;;;;5.66;67.39;96892.19;4196051;28;20044;-71
2022/04/08 07:01:09;;;;;;;8.63;3.88;;;;;;;5.74;67.10;96898.50;4195614;28;20044;-70
2022/04/08 07:03:09;;;;;;;3.58;2.15;;;;;;;5.81;66.40;96912.28;4189286;28;20037;-71
2022/04/08 07:05:10;;;;;;;4.35;2.45;;;;;;;5.88;68.45;96904.06;4194454;28;20047;-71
2022/04/08 07:07:10;;;;;;;3.00;2.33;;;;;;;5.74;65.47;96906.75;4195565;28;20037;-72
2022/04/08 07:09:10;;;;;;;4.72;2.33;;;;;;;5.85;65.50;96907.56;4197427;28;20052;-72
2022/04/08 07:11:11;;;;;;;4.95;2.15;;;;;;;5.93;65.13;96914.69;4191251;28;20501;-71
2022/04/08 07:13:12;;;;;;;3.97;2.55;;;;;;;5.99;65.71;96909.63;4196086;28;20954;-71
2022/04/08 07:15:12;;;;;;;2.90;2.08;;;;;;;6.12;63.90;96906.16;4195379;28;20100;-71
2022/04/08 07:17:12;;;;;;;3.85;2.50;;;;;;;6.04;64.32;96901.00;4190571;28;20044;-70
2022/04/08 07:19:13;;;;;;;4.15;2.75;;;;;;;6.09;65.56;96906.13;4196021;28;20047;-73
2022/04/08 07:21:13;;;;;;;2.45;2.15;;;;;;;6.10;64.39;96913.19;4194688;28;20088;-71
2022/04/08 07:23:13;;;;;;;3.28;2.30;;;;;;;6.10;64.73;96905.75;4195679;28;20048;-70
2022/04/08 07:25:15;;;;;;;2.63;2.20;;;;;;;6.14;64.21;96897.53;4191490;28;20414;-71
2022/04/08 07:27:17;;;;;;;2.97;1.98;;;;;;;6.16;62.92;96904.19;4198583;28;20040;-71
2022/04/08 07:29:17;;;;;;;3.90;2.50;;;;;;;6.22;63.53;96896.38;4196892;28;20040;-71
2022/04/08 07:31:18;;;;;;;2.50;2.15;;;;;;;6.27;62.42;96893.25;4191611;28;20043;-71
2022/04/08 07:33:18;;;;;;;4.10;2.33;;;;;;;6.21;62.30;96892.06;4196234;28;20433;-71
2022/04/08 07:35:19;;;;;;;4.63;2.80;;;;;;;6.29;62.67;96896.41;4193769;28;20096;-71
2022/04/08 07:37:30;;;;;;;5.30;2.47;;;;;;;6.20;62.99;96907.72;4192478;28;20737;-73
2022/04/08 07:39:31;;;;;;;4.82;2.58;;;;;;;6.34;64.74;96906.22;4190675;28;20041;-71
2022/04/08 07:41:31;;;;;;;4.13;2.30;;;;;;;6.39;64.52;96911.34;4195451;28;20112;-71
2022/04/08 07:43:31;;;;;;;4.78;2.05;;;;;;;6.47;63.23;96919.22;4195952;28;20205;-71
2022/04/08 07:45:32;;;;;;;4.20;2.70;;;;;;;6.56;63.94;96923.56;4187911;28;20041;-71
2022/04/08 07:47:34;;;;;;;3.45;2.25;;;;;;;6.61;63.57;96920.41;4193929;28;20044;-71
2022/04/08 07:49:35;;;;;;;3.38;3.00;;;;;;;6.60;64.69;96918.84;4194072;28;20473;-71
2022/04/08 07:51:35;;;;;;;3.63;2.90;;;;;;;6.65;63.71;96924.75;4196823;28;20075;-71
2022/04/08 07:53:36;;;;;;;4.20;3.03;;;;;;;6.72;63.81;96918.47;4189470;28;20497;-71
2022/04/08 07:55:36;;;;;;;3.75;2.80;;;;;;;6.65;61.95;96926.72;4197957;28;20032;-71
2022/04/08 07:57:47;;;;;;;3.67;2.70;;;;;;;6.63;62.63;96926.31;4195039;28;20121;-71
2022/04/08 07:59:48;;;;;;;5.20;2.38;;;;;;;6.61;62.18;96918.44;4190276;28;20057;-71
2022/04/08 08:01:48;;;;;;;4.70;3.08;;;;;;;6.62;62.27;96931.03;4194486;28;20426;-71
2022/04/08 08:03:49;;;;;;;3.30;2.53;;;;;;;6.56;61.94;96916.09;4196902;28;20055;-71
2022/04/08 08:05:51;;;;;;;3.53;2.80;;;;;;;6.55;62.91;96917.28;4198108;28;20043;-71
2022/04/08 08:07:53;;;;;;;;;;;;;;;6.64;64.21;96927.88;4199507;28;20099;-71
2022/04/08 08:09:53;;;;;;;6.32;4.05;;;;;;;6.66;64.64;96923.56;4195590;28;19912;-71
2022/04/08 08:11:54;;;;;;;5.30;2.80;;;;;;;6.72;63.39;96929.47;4196854;28;20040;-71
2022/04/08 08:13:54;;;;;;;5.32;3.78;;;;;;;6.65;62.30;96930.25;4195311;28;20097;-71
2022/04/08 08:15:54;;;;;;;7.18;3.53;;;;;;;6.66;60.58;96922.78;4197877;28;20469;-71
2022/04/08 08:17:58;;;;;;;4.47;2.42;;;;;;;6.70;59.47;96929.88;4199285;28;20209;-71
2022/04/08 08:19:58;;;;;;;4.55;2.90;;;;;;;6.69;61.95;96917.28;4198435;28;20112;-71
2022/04/08 08:21:59;;;;;;;4.90;2.97;;;;;;;6.70;61.96;96929.06;4195926;28;20372;-71
2022/04/08 08:23:59;;;;;;;5.93;3.30;;;;;;;6.69;61.54;96917.28;4196876;28;20481;-71
2022/04/08 08:26:00;;;;;;;5.03;3.17;;;;;;;6.76;61.71;96922.78;4198058;28;20511;-70
2022/04/08 08:28:01;;;;;;;5.15;3.08;;;;;;;6.72;62.31;96927.50;4192388;28;20458;-71
2022/04/08 08:30:03;;;;;;;4.17;3.20;;;;;;;6.53;62.37;96927.84;4190597;28;20048;-71
2022/04/08 08:32:04;;;;;;;5.30;3.22;;;;;;;6.50;63.29;96909.41;4197101;28;20028;-71
2022/04/08 08:34:04;;;;;;;5.22;3.58;;;;;;;6.52;64.57;96918.03;4194304;28;20065;-73
2022/04/08 08:36:06;;;;;;;4.35;3.05;;;;;;;6.54;64.36;96909.41;4198679;28;20036;-72
2022/04/08 08:38:07;;;;;;;5.78;3.33;;;;;;;6.64;64.56;96912.19;4197179;28;20089;-72
2022/04/08 08:40:09;;;;;;;6.57;3.45;;;;;;;6.81;65.20;96920.84;4196434;28;20028;-72
2022/04/08 08:42:10;;;;;;;3.90;2.95;;;;;;;6.89;63.65;96916.94;4194678;28;20035;-72
2022/04/08 08:44:10;;;;;;;5.35;3.65;;;;;;;6.90;62.70;96911.03;4196980;28;20123;-72
2022/04/08 08:46:12;;;;;;;7.95;3.50;;;;;;;6.82;60.25;96925.16;4194680;28;20036;-72
2022/04/08 08:48:13;;;;;;;6.47;4.45;;;;;;;6.86;59.28;96923.19;4195464;28;20059;-72
2022/04/08 08:50:16;;;;;;;6.85;4.45;;;;;;;6.81;61.35;96916.13;4195404;28;20025;-72
2022/04/08 08:52:18;;;;;;;6.68;4.60;;;;;;;6.80;60.71;96927.53;4196538;28;20085;-72
2022/04/08 08:54:19;;;;;;;;;;;;;;;6.92;61.34;96927.13;4200284;28;20040;-72
2022/04/08 08:56:19;;;;;;;7.70;4.90;;;;;;;6.96;60.34;96927.94;4195900;28;19909;-72
2022/04/08 08:58:19;;;;;;;7.88;4.55;;;;;;;7.04;61.37;96924.03;4196664;28;20368;-72
2022/04/08 09:00:22;;;;;;;6.97;5.03;;;;;;;7.07;59.14;96927.94;4198340;28;20489;-72
2022/04/08 09:02:23;;;;;;;4.82;4.07;;;;;;;6.99;58.43;96922.44;4193990;28;20086;-72
2022/04/08 09:04:25;;;;;;;6.07;4.20;;;;;;;6.99;57.93;96927.16;4198741;28;20048;-72
2022/04/08 09:06:25;;;;;;;7.90;4.20;;;;;;;7.04;57.94;96919.31;4196746;28;20056;-72
2022/04/08 09:08:32;;;;;;;6.57;3.88;;;;;;;7.05;58.71;96914.59;4193037;28;20296;-72
2022/04/08 09:10:45;;;;;;;7.20;3.53;;;;;;;7.14;58.69;96917.72;4193245;28;20135;-72
2022/04/08 09:12:52;;;;;;;;;;;;;;;7.09;57.11;96931.84;4197423;28;20044;-72
2022/04/08 09:14:54;;;;;;;8.02;3.47;;;;;;;7.09;56.65;96931.06;4197134;28;20273;-72
2022/04/08 09:17:01;;;;;;;7.13;3.55;;;;;;;7.05;57.59;96909.09;4198554;28;20412;-72
2022/04/08 09:19:13;;;;;;;4.90;3.50;;;;;;;6.92;58.18;96907.88;4192234;28;20087;-71
2022/04/08 09:21:22;;;;;;;5.45;3.30;;;;;;;6.89;58.67;96920.47;4197402;28;20036;-72
2022/04/08 09:23:22;;;;;;;8.98;3.72;;;;;;;6.93;58.72;96909.47;4195982;28;20040;-72
2022/04/08 09:25:26;;;;;;;10.30;4.78;;;;;;;6.92;59.61;96913.38;4196844;28;20046;-71
2022/04/08 09:27:33;;;;;;;4.90;3.95;;;;;;;6.92;58.51;96908.69;4194836;28;20332;-72
2022/04/08 09:29:34;;;;;;;8.48;4.75;;;;;;;6.99;59.21;96910.66;4197133;28;20203;-72
2022/04/08 09:31:34;;;;;;;6.97;4.53;;;;;;;6.99;59.12;96903.19;4195317;28;20076;-72
2022/04/08 09:33:34;;;;;;;7.05;5.50;;;;;;;7.00;59.12;96903.97;4189326;28;20036;-72
2022/04/08 09:35:39;;;;;;;8.13;4.78;;;;;;;7.06;60.47;96907.91;4201501;28;20262;-72